createdAt,value
2023-04-15T00:00:28.050Z,72.4404
2023-04-15T00:01:28.607Z,71.2288
2023-04-15T00:02:29.258Z,71.5626
2023-04-15T00:03:30.087Z,71.4428
2023-04-15T00:04:30.983Z,71.9946
2023-04-15T00:05:31.538Z,70.9321
2023-04-15T00:06:32.100Z,69.5652
2023-04-15T00:07:32.637Z,70.4046
2023-04-15T00:08:33.198Z,70.5659
2023-04-15T00:09:34.308Z,70.2070
2023-04-15T00:10:34.833Z,70.3314
2023-04-15T00:11:35.366Z,70.9167
2023-04-15T00:12:36.064Z,70.5922
2023-04-15T00:13:36.569Z,71.5005
2023-04-15T00:14:37.147Z,71.4011
2023-04-15T00:15:37.714Z,71.3319
2023-04-15T00:16:38.318Z,71.8096
2023-04-15T00:17:38.905Z,71.9915
2023-04-15T00:18:39.466Z,71.3846
2023-04-15T00:19:40.294Z,70.7056
2023-04-15T00:20:40.814Z,70.4739
2023-04-15T00:21:41.333Z,70.9457
2023-04-15T00:22:41.891Z,71.7354
2023-04-15T00:23:42.446Z,72.8105
2023-04-15T00:24:43.256Z,74.9733
2023-04-15T00:25:43.851Z,74.9108
2023-04-15T00:26:44.375Z,73.9246
2023-04-15T00:27:44.945Z,73.5735
2023-04-15T00:28:45.514Z,74.1209
2023-04-15T00:29:46.311Z,74.2968
2023-04-15T00:30:46.944Z,73.4798
2023-04-15T00:31:47.471Z,73.1884
2023-04-15T00:32:48.086Z,73.8961
2023-04-15T00:33:48.624Z,74.8836
2023-04-15T00:34:49.156Z,75.5232
2023-04-15T00:35:49.681Z,75.8844
2023-04-15T00:36:50.248Z,75.7960
2023-04-15T00:37:50.806Z,74.8522
2023-04-15T00:38:51.388Z,73.7195
2023-04-15T00:39:52.012Z,74.0637
2023-04-15T00:40:52.558Z,74.3429
2023-04-15T00:41:53.129Z,74.1121
2023-04-15T00:42:53.666Z,73.5403
2023-04-15T00:43:54.212Z,74.4722
2023-04-15T00:44:54.781Z,73.4472
2023-04-15T00:45:55.440Z,73.5560
2023-04-15T00:46:56.315Z,72.9039
2023-04-15T00:47:56.934Z,71.6999
2023-04-15T00:48:57.836Z,71.2268
2023-04-15T00:49:58.406Z,71.3565
2023-04-15T00:50:58.973Z,70.6075
2023-04-15T00:51:59.728Z,71.0272
2023-04-15T00:53:00.313Z,70.7928
2023-04-15T00:54:00.850Z,70.9607
2023-04-15T00:55:01.445Z,71.0099
2023-04-15T00:56:02.011Z,71.2643
2023-04-15T00:57:02.667Z,71.7567
2023-04-15T00:59:06.310Z,71.5668
2023-04-15T01:00:06.921Z,71.8753
2023-04-15T01:01:09.115Z,70.8028
2023-04-15T01:02:09.749Z,70.4572
2023-04-15T01:07:13.785Z,70.5591
2023-04-15T01:10:53.283Z,70.5193
2023-04-15T01:11:47.022Z,70.7320
2023-04-15T01:12:47.577Z,71.1083
2023-04-15T01:13:48.294Z,71.3353
2023-04-15T01:14:48.382Z,71.8627
2023-04-15T01:15:49.021Z,71.3123
2023-04-15T01:16:49.829Z,71.6743
2023-04-15T01:17:50.414Z,71.4777
2023-04-15T01:18:50.947Z,72.1338
2023-04-15T01:19:51.501Z,72.5334
2023-04-15T01:20:52.034Z,72.6741
2023-04-15T01:21:52.697Z,72.8862
2023-04-15T01:22:53.180Z,73.2061
2023-04-15T01:23:53.734Z,73.2973
2023-04-15T01:24:54.473Z,73.0525
2023-04-15T01:25:55.019Z,73.0247
2023-04-15T01:26:55.604Z,72.8788
2023-04-15T01:28:10.865Z,72.8936
2023-04-15T01:28:57.291Z,73.0122
2023-04-15T01:29:57.891Z,73.0160
2023-04-15T01:30:58.391Z,71.7388
2023-04-15T01:31:59.052Z,72.6922
2023-04-15T01:32:59.640Z,73.1865
2023-04-15T01:34:00.207Z,73.2077
2023-04-15T01:35:00.717Z,73.1659
2023-04-15T01:36:01.249Z,73.0730
2023-04-15T01:37:01.881Z,73.0168
2023-04-15T01:38:02.461Z,72.9581
2023-04-15T01:39:03.099Z,72.9915
2023-04-15T01:40:03.727Z,73.1046
2023-04-15T01:41:04.301Z,73.2754
2023-04-15T01:42:04.827Z,73.2758
2023-04-15T01:43:05.398Z,73.7469
2023-04-15T01:44:05.929Z,74.1063
2023-04-15T01:45:06.468Z,74.1906
2023-04-15T01:46:06.998Z,74.3635
2023-04-15T01:47:07.546Z,74.6612
2023-04-15T01:48:08.138Z,74.1736
2023-04-15T01:49:08.937Z,74.3270
2023-04-15T01:50:09.462Z,74.0440
2023-04-15T01:51:10.043Z,74.5240
2023-04-15T01:52:10.583Z,74.4005
2023-04-15T01:53:11.154Z,74.8912
2023-04-15T01:54:12.300Z,75.6578
2023-04-15T01:55:12.858Z,76.0373
2023-04-15T01:56:15.283Z,76.0107
2023-04-15T01:57:15.104Z,76.4559
2023-04-15T01:58:15.592Z,76.5472
2023-04-15T01:59:16.326Z,76.4585
2023-04-15T02:00:16.844Z,76.4134
2023-04-15T02:01:17.431Z,76.0983
2023-04-15T02:02:17.987Z,76.5786
2023-04-15T02:03:18.640Z,75.7470
2023-04-15T02:04:20.768Z,75.4049
2023-04-15T02:05:24.807Z,75.4452
2023-04-15T02:06:25.359Z,75.1869
2023-04-15T02:07:25.884Z,75.4340
2023-04-15T02:08:26.420Z,75.2307
2023-04-15T02:09:26.965Z,75.0747
2023-04-15T02:10:27.539Z,75.3504
2023-04-15T02:11:28.301Z,75.6252
2023-04-15T02:12:28.809Z,76.0003
2023-04-15T02:13:29.356Z,75.7049
2023-04-15T02:14:29.858Z,75.7930
2023-04-15T02:15:30.381Z,75.8516
2023-04-15T02:16:30.983Z,76.0010
2023-04-15T02:17:31.526Z,76.2666
2023-04-15T02:18:32.032Z,75.8592
2023-04-15T02:19:32.556Z,75.4077
2023-04-15T02:20:33.089Z,75.8250
2023-04-15T02:21:34.258Z,76.2994
2023-04-15T02:22:34.877Z,75.9170
2023-04-15T02:23:35.438Z,76.0795
2023-04-15T02:24:35.931Z,75.7172
2023-04-15T02:25:36.453Z,75.9737
2023-04-15T02:26:37.013Z,75.8897
2023-04-15T02:27:37.546Z,76.0907
2023-04-15T02:28:38.077Z,75.7715
2023-04-15T02:29:38.665Z,76.4411
2023-04-15T02:30:39.195Z,76.7785
2023-04-15T02:31:40.015Z,76.3745
2023-04-15T02:32:40.594Z,76.0342
2023-04-15T02:33:41.105Z,75.8460
2023-04-15T02:34:41.660Z,75.4290
2023-04-15T02:35:42.233Z,75.8194
2023-04-15T02:36:42.807Z,76.1756
2023-04-15T02:37:43.434Z,74.7960
2023-04-15T02:38:44.055Z,74.3516
2023-04-15T02:39:44.582Z,74.6349
2023-04-15T02:40:45.142Z,74.4278
2023-04-15T02:41:45.977Z,74.2236
2023-04-15T02:42:46.581Z,74.2747
2023-04-15T02:43:47.112Z,74.6621
2023-04-15T02:44:47.680Z,74.7092
2023-04-15T02:45:48.398Z,75.2877
2023-04-15T02:46:49.094Z,75.3824
2023-04-15T02:47:49.707Z,75.5611
2023-04-15T02:48:50.485Z,75.6512
2023-04-15T02:49:51.002Z,75.7788
2023-04-15T02:50:52.048Z,75.9337
2023-04-15T02:51:52.857Z,75.8614
2023-04-15T02:52:53.385Z,76.4665
2023-04-15T02:53:53.973Z,76.5092
2023-04-15T02:54:54.530Z,76.5634
2023-04-15T02:55:55.065Z,76.6512
2023-04-15T02:56:55.814Z,76.7292
2023-04-15T02:57:56.365Z,76.5366
2023-04-15T02:58:56.960Z,76.9548
2023-04-15T02:59:57.454Z,76.6566
2023-04-15T03:00:57.998Z,75.8140
2023-04-15T03:01:58.549Z,76.6860
2023-04-15T03:02:59.215Z,76.6354
2023-04-15T03:03:59.904Z,76.7356
2023-04-15T03:05:00.425Z,76.3500
2023-04-15T03:06:00.943Z,76.2913
2023-04-15T03:07:01.487Z,76.4496
2023-04-15T03:08:02.032Z,76.3590
2023-04-15T03:09:02.731Z,76.4277
2023-04-15T03:10:03.324Z,76.5033
2023-04-15T03:11:03.895Z,77.0025
2023-04-15T03:12:04.421Z,77.0065
2023-04-15T03:13:04.986Z,77.3403
2023-04-15T03:14:05.547Z,77.5249
2023-04-15T03:15:06.083Z,77.7044
2023-04-15T03:16:06.718Z,77.3142
2023-04-15T03:17:07.275Z,77.3307
2023-04-15T03:18:07.928Z,77.1363
2023-04-15T03:19:08.484Z,77.1817
2023-04-15T03:20:09.061Z,76.7869
2023-04-15T03:21:09.563Z,76.7362
2023-04-15T03:22:10.122Z,76.6319
2023-04-15T03:23:10.650Z,76.9900
2023-04-15T03:24:11.219Z,77.0209
2023-04-15T03:25:11.748Z,76.8198
2023-04-15T03:26:12.300Z,76.4622
2023-04-15T03:27:12.804Z,76.1482
2023-04-15T03:28:13.345Z,75.7338
2023-04-15T03:29:15.424Z,75.9534
2023-04-15T03:30:15.935Z,75.9399
2023-04-15T03:31:16.828Z,75.5505
2023-04-15T03:32:17.339Z,75.6575
2023-04-15T03:33:17.890Z,75.5012
2023-04-15T03:34:18.442Z,75.8898
2023-04-15T03:35:19.012Z,76.3109
2023-04-15T03:36:19.541Z,76.4029
2023-04-15T03:37:20.054Z,76.0600
2023-04-15T03:38:20.621Z,75.8596
2023-04-15T03:39:21.174Z,75.5803
2023-04-15T03:40:21.706Z,75.5961
2023-04-15T03:41:22.500Z,75.9139
2023-04-15T03:42:23.003Z,76.1509
2023-04-15T03:43:23.574Z,76.4074
2023-04-15T03:44:24.129Z,75.7901
2023-04-15T03:45:24.690Z,76.3698
2023-04-15T03:46:25.487Z,75.9114
2023-04-15T03:47:25.991Z,76.1399
2023-04-15T03:48:26.516Z,76.3371
2023-04-15T03:49:27.076Z,76.6040
2023-04-15T03:50:27.593Z,76.6492
2023-04-15T03:51:28.135Z,76.3908
2023-04-15T03:52:28.697Z,76.9405
2023-04-15T03:53:29.288Z,76.5562
2023-04-15T03:54:29.833Z,76.9921
2023-04-15T03:55:30.361Z,77.2212
2023-04-15T03:56:31.126Z,77.3419
2023-04-15T03:57:31.692Z,77.2072
2023-04-15T03:58:32.282Z,77.6057
2023-04-15T03:59:32.850Z,77.6768
2023-04-15T04:00:33.401Z,77.8309
2023-04-15T04:01:34.021Z,77.6385
2023-04-15T04:02:34.612Z,77.5652
2023-04-15T04:03:35.357Z,78.0160
2023-04-15T04:04:36.056Z,77.9311
2023-04-15T04:05:36.572Z,77.4690
2023-04-15T04:06:37.109Z,77.7912
2023-04-15T04:07:37.652Z,78.1163
2023-04-15T04:08:38.283Z,78.2950
2023-04-15T04:09:38.809Z,78.4230
2023-04-15T04:10:39.402Z,78.1647
2023-04-15T04:11:40.262Z,78.1929
2023-04-15T04:12:40.769Z,78.0844
2023-04-15T04:13:41.394Z,78.4638
2023-04-15T04:14:41.934Z,77.8407
2023-04-15T04:15:42.480Z,77.9447
2023-04-15T04:16:44.886Z,77.9017
2023-04-15T04:17:45.406Z,77.3176
2023-04-15T04:18:45.984Z,77.6406
2023-04-15T04:19:46.554Z,76.8613
2023-04-15T04:20:47.102Z,77.2375
2023-04-15T04:21:47.872Z,77.7912
2023-04-15T04:22:48.427Z,77.6859
2023-04-15T04:23:49.017Z,77.5419
2023-04-15T04:24:49.538Z,77.2227
2023-04-15T04:25:50.076Z,75.8132
2023-04-15T04:26:50.609Z,76.5089
2023-04-15T04:27:51.172Z,76.7959
2023-04-15T04:28:51.918Z,77.1731
2023-04-15T04:29:52.478Z,77.7663
2023-04-15T04:30:52.997Z,77.1718
2023-04-15T04:31:53.630Z,77.8870
2023-04-15T04:32:54.191Z,77.1534
2023-04-15T04:33:54.718Z,76.5448
2023-04-15T04:34:55.246Z,76.9682
2023-04-15T04:35:55.778Z,77.2719
2023-04-15T04:36:56.353Z,77.3963
2023-04-15T04:37:56.907Z,76.3650
2023-04-15T04:38:57.441Z,75.9010
2023-04-15T04:39:57.957Z,75.1049
2023-04-15T04:40:58.463Z,75.5623
2023-04-15T04:41:59.244Z,75.4268
2023-04-15T04:42:59.807Z,75.2088
2023-04-15T04:44:00.353Z,74.9976
2023-04-15T04:45:00.892Z,74.7510
2023-04-15T04:46:01.481Z,75.0441
2023-04-15T04:47:02.072Z,75.5015
2023-04-15T04:48:02.759Z,75.4153
2023-04-15T04:49:03.770Z,74.0528
2023-04-15T04:50:04.359Z,75.5428
2023-04-15T04:51:04.910Z,75.6073
2023-04-15T04:52:05.444Z,75.4446
2023-04-15T04:53:05.974Z,75.5923
2023-04-15T04:54:06.787Z,75.1748
2023-04-15T04:55:07.337Z,74.4541
2023-04-15T04:56:07.872Z,74.3718
2023-04-15T04:57:08.423Z,73.9647
2023-04-15T04:58:09.008Z,74.8469
2023-04-15T04:59:09.557Z,75.1253
2023-04-15T05:00:10.142Z,74.3073
2023-04-15T05:01:10.781Z,74.1524
2023-04-15T05:02:11.341Z,73.7927
2023-04-15T05:03:12.148Z,74.3222
2023-04-15T05:04:13.182Z,74.7192
2023-04-15T05:05:13.768Z,74.6927
2023-04-15T05:06:14.320Z,74.7571
2023-04-15T05:07:14.898Z,75.0404
2023-04-15T05:08:15.507Z,75.2956
2023-04-15T05:09:16.378Z,75.3202
2023-04-15T05:10:16.957Z,75.3533
2023-04-15T05:11:17.467Z,75.2859
2023-04-15T05:12:17.988Z,75.4614
2023-04-15T05:13:18.545Z,75.7605
2023-04-15T05:14:19.138Z,75.7245
2023-04-15T05:15:19.679Z,75.8891
2023-04-15T05:16:20.295Z,75.6422
2023-04-15T05:17:20.903Z,75.4624
2023-04-15T05:18:21.447Z,75.2829
2023-04-15T05:19:22.012Z,74.6433
2023-04-15T05:20:22.547Z,74.8177
2023-04-15T05:21:23.079Z,75.2801
2023-04-15T05:22:23.634Z,75.3461
2023-04-15T05:23:24.517Z,75.4170
2023-04-15T05:24:25.066Z,75.2743
2023-04-15T05:25:25.584Z,75.3599
2023-04-15T05:26:26.143Z,75.2743
2023-04-15T05:27:26.725Z,75.4385
2023-04-15T05:28:27.271Z,75.4734
2023-04-15T05:29:27.817Z,75.0510
2023-04-15T05:30:28.348Z,74.7004
2023-04-15T05:31:29.209Z,74.6578
2023-04-15T05:32:29.840Z,74.9211
2023-04-15T05:33:30.416Z,75.0683
2023-04-15T05:34:31.035Z,75.6627
2023-04-15T05:35:31.603Z,75.7035
2023-04-15T05:36:32.189Z,75.3895
2023-04-15T05:37:32.764Z,75.3234
2023-04-15T05:38:33.556Z,74.2197
2023-04-15T05:39:34.163Z,74.8239
2023-04-15T05:40:34.755Z,73.7299
2023-04-15T05:41:35.336Z,73.6313
2023-04-15T05:42:35.899Z,74.3913
2023-04-15T05:43:36.521Z,74.4433
2023-04-15T05:44:37.153Z,74.1925
2023-04-15T05:45:37.729Z,73.7904
2023-04-15T05:46:38.583Z,74.0498
2023-04-15T05:47:39.259Z,73.9012
2023-04-15T05:48:39.895Z,74.0206
2023-04-15T05:49:40.492Z,73.3175
2023-04-15T05:50:41.071Z,73.1898
2023-04-15T05:51:41.733Z,73.6785
2023-04-15T05:52:42.277Z,72.8383
2023-04-15T05:53:42.851Z,73.3823
2023-04-15T05:54:43.438Z,73.3117
2023-04-15T05:55:44.040Z,73.7552
2023-04-15T05:56:44.617Z,73.9522
2023-04-15T05:57:45.227Z,73.7486
2023-04-15T05:58:46.017Z,72.3900
2023-04-15T05:59:46.562Z,72.7373
2023-04-15T06:00:47.149Z,72.2407
2023-04-15T06:01:47.981Z,72.9131
2023-04-15T06:02:48.661Z,73.2867
2023-04-15T06:03:49.445Z,74.1133
2023-04-15T06:04:50.186Z,73.8600
2023-04-15T06:05:50.688Z,74.4554
2023-04-15T06:06:51.256Z,74.4014
2023-04-15T06:07:51.823Z,74.5050
2023-04-15T06:08:52.458Z,74.2434
2023-04-15T06:09:53.040Z,73.8831
2023-04-15T06:10:53.622Z,73.3932
2023-04-15T06:11:54.310Z,72.9044
2023-04-15T06:12:54.838Z,72.2489
2023-04-15T06:13:55.414Z,71.6649
2023-04-15T06:14:56.022Z,71.5642
2023-04-15T06:15:56.605Z,72.0644
2023-04-15T06:16:57.247Z,73.3542
2023-04-15T06:17:57.830Z,72.2582
2023-04-15T06:18:58.436Z,72.6313
2023-04-15T06:19:59.016Z,71.7737
2023-04-15T06:20:59.622Z,73.1531
2023-04-15T06:22:00.228Z,72.5619
2023-04-15T06:23:00.823Z,72.3038
2023-04-15T06:24:01.473Z,71.9245
2023-04-15T06:25:02.116Z,72.1193
2023-04-15T06:26:02.712Z,72.2176
2023-04-15T06:27:03.312Z,72.3461
2023-04-15T06:28:03.898Z,71.5559
2023-04-15T06:29:04.483Z,71.3366
2023-04-15T06:30:05.088Z,71.4689
2023-04-15T06:31:07.269Z,70.7438
2023-04-15T06:32:07.827Z,70.6871
2023-04-15T06:33:08.467Z,68.7461
2023-04-15T06:34:09.105Z,68.2857
2023-04-15T06:35:09.698Z,68.3549
2023-04-15T06:36:10.355Z,68.1251
2023-04-15T06:37:10.904Z,68.8345
2023-04-15T06:38:11.503Z,68.9036
2023-04-15T06:39:12.079Z,68.3916
2023-04-15T06:40:12.675Z,68.1357
2023-04-15T06:41:13.256Z,68.2005
2023-04-15T06:42:13.848Z,68.6095
2023-04-15T06:43:14.477Z,67.3329
2023-04-15T06:44:15.080Z,66.1956
2023-04-15T06:45:15.701Z,67.1524
2023-04-15T06:46:16.368Z,68.5141
2023-04-15T06:47:17.017Z,68.1739
2023-04-15T06:48:17.629Z,69.0229
2023-04-15T06:49:18.237Z,68.5621
2023-04-15T06:50:18.866Z,68.5257
2023-04-15T06:51:19.457Z,68.4375
2023-04-15T06:52:20.074Z,68.3047
2023-04-15T06:53:20.624Z,69.3222
2023-04-15T06:54:21.234Z,69.2759
2023-04-15T06:55:21.828Z,69.9094
2023-04-15T06:56:22.408Z,69.9361
2023-04-15T06:57:23.017Z,69.5646
2023-04-15T06:58:23.571Z,70.0329
2023-04-15T06:59:24.145Z,69.8107
2023-04-15T07:00:24.779Z,68.9223
2023-04-15T07:01:25.390Z,68.3103
2023-04-15T07:02:26.127Z,69.5501
2023-04-15T07:03:26.731Z,69.0534
2023-04-15T07:04:27.335Z,69.4484
2023-04-15T07:05:27.985Z,70.1600
2023-04-15T07:06:28.625Z,69.7873
2023-04-15T07:07:29.191Z,69.3590
2023-04-15T07:08:30.025Z,69.6001
2023-04-15T07:09:30.595Z,69.0990
2023-04-15T07:10:31.190Z,68.1086
2023-04-15T07:11:31.789Z,68.4582
2023-04-15T07:12:32.365Z,68.9524
2023-04-15T07:13:32.936Z,68.1216
2023-04-15T07:14:33.520Z,68.2278
2023-04-15T07:15:34.123Z,68.0306
2023-04-15T07:16:34.770Z,67.2219
2023-04-15T07:17:35.411Z,68.8159
2023-04-15T07:18:35.993Z,69.7957
2023-04-15T07:19:36.590Z,69.8741
2023-04-15T07:20:37.232Z,69.8444
2023-04-15T07:21:38.928Z,69.8247
2023-04-15T07:22:40.522Z,69.8074
2023-04-15T07:23:41.347Z,69.2464
2023-04-15T07:24:41.922Z,69.7910
2023-04-15T07:25:42.541Z,69.8954
2023-04-15T07:26:43.105Z,69.4759
2023-04-15T07:27:43.691Z,69.3136
2023-04-15T07:28:44.307Z,69.7734
2023-04-15T07:29:44.902Z,69.8694
2023-04-15T07:30:45.499Z,70.3862
2023-04-15T07:31:46.119Z,71.3789
2023-04-15T07:32:46.758Z,72.9124
2023-04-15T07:33:47.303Z,72.1684
2023-04-15T07:34:47.908Z,72.8886
2023-04-15T07:35:48.530Z,74.2266
2023-04-15T07:36:49.116Z,74.0275
2023-04-15T07:37:49.912Z,73.3033
2023-04-15T07:38:50.495Z,73.2010
2023-04-15T07:39:51.124Z,72.6160
2023-04-15T07:40:51.865Z,74.0413
2023-04-15T07:41:52.438Z,75.9222
2023-04-15T07:42:53.009Z,75.7129
2023-04-15T07:43:53.685Z,76.5901
2023-04-15T07:44:54.259Z,76.3955
2023-04-15T07:45:55.114Z,76.1480
2023-04-15T07:46:55.659Z,75.5239
2023-04-15T07:47:56.381Z,75.3870
2023-04-15T07:48:56.986Z,74.9849
2023-04-15T07:49:57.616Z,74.4345
2023-04-15T07:50:58.226Z,74.4035
2023-04-15T07:51:58.826Z,75.5778
2023-04-15T07:52:59.665Z,76.4617
2023-04-15T07:54:00.241Z,75.6702
2023-04-15T07:55:00.874Z,74.2490
2023-04-15T07:56:01.733Z,74.0167
2023-04-15T07:57:02.330Z,74.3642
2023-04-15T07:58:03.041Z,73.8936
2023-04-15T07:59:03.805Z,73.4394
2023-04-15T08:00:04.566Z,73.2291
2023-04-15T08:01:05.171Z,72.8147
2023-04-15T08:02:05.932Z,73.8490
2023-04-15T08:03:06.573Z,73.1392
2023-04-15T08:04:07.377Z,74.3680
2023-04-15T08:05:07.982Z,75.3333
2023-04-15T08:06:08.577Z,75.8679
2023-04-15T08:07:09.157Z,75.6719
2023-04-15T08:08:09.751Z,74.6798
2023-04-15T08:09:10.357Z,74.9899
2023-04-15T08:10:11.112Z,74.9238
2023-04-15T08:11:11.921Z,74.9487
2023-04-15T08:12:12.505Z,74.6569
2023-04-15T08:13:13.106Z,73.2092
2023-04-15T08:14:13.689Z,73.7813
2023-04-15T08:15:14.296Z,73.2417
2023-04-15T08:16:14.866Z,73.1432
2023-04-15T08:17:15.627Z,72.6424
2023-04-15T08:18:16.277Z,72.6715
2023-04-15T08:19:16.872Z,72.5935
2023-04-15T08:20:17.503Z,72.2794
2023-04-15T08:21:18.165Z,72.5606
2023-04-15T08:22:20.105Z,73.0015
2023-04-15T08:23:22.175Z,72.1903
2023-04-15T08:24:22.818Z,72.0463
2023-04-15T08:25:23.430Z,71.3579
2023-04-15T08:26:24.022Z,70.7564
2023-04-15T08:27:24.608Z,71.4505
2023-04-15T08:28:25.199Z,72.0273
2023-04-15T08:29:25.838Z,72.4137
2023-04-15T08:30:26.666Z,70.4259
2023-04-15T08:31:27.403Z,69.5883
2023-04-15T08:32:27.985Z,69.7735
2023-04-15T08:33:28.904Z,69.9445
2023-04-15T08:34:29.484Z,70.1739
2023-04-15T08:35:30.158Z,67.5824
2023-04-15T08:36:30.759Z,67.0665
2023-04-15T08:37:31.551Z,69.9193
2023-04-15T08:38:32.167Z,71.1561
2023-04-15T08:39:32.835Z,70.6161
2023-04-15T08:40:33.689Z,69.9830
2023-04-15T08:41:34.275Z,70.4899
2023-04-15T08:42:34.901Z,72.3670
2023-04-15T08:43:35.526Z,72.3759
2023-04-15T08:44:36.102Z,72.3016
2023-04-15T08:45:36.692Z,72.3200
2023-04-15T08:46:37.371Z,70.3278
2023-04-15T08:47:38.204Z,69.2745
2023-04-15T08:48:38.817Z,68.3943
2023-04-15T08:49:39.481Z,66.9184
2023-04-15T08:50:40.124Z,66.9832
2023-04-15T08:51:40.731Z,68.1324
2023-04-15T08:52:41.555Z,68.6321
2023-04-15T08:53:42.179Z,68.5486
2023-04-15T08:54:42.779Z,67.0305
2023-04-15T08:55:43.567Z,66.1339
2023-04-15T08:56:44.379Z,66.4528
2023-04-15T08:57:44.953Z,67.2028
2023-04-15T08:58:45.508Z,65.6669
2023-04-15T08:59:46.086Z,67.1206
2023-04-15T09:00:46.760Z,67.7334
2023-04-15T09:01:47.445Z,67.2506
2023-04-15T09:02:48.152Z,68.5534
2023-04-15T09:03:48.852Z,71.5512
2023-04-15T09:04:49.537Z,72.7150
2023-04-15T09:05:51.461Z,73.7098
2023-04-15T09:06:50.227Z,73.3035
2023-04-15T09:07:50.858Z,72.4514
2023-04-15T09:08:51.385Z,73.9108
2023-04-15T09:09:51.949Z,74.0333
2023-04-15T09:10:52.559Z,74.5298
2023-04-15T09:11:53.158Z,75.6243
2023-04-15T09:12:53.769Z,74.6519
2023-04-15T09:13:54.357Z,74.9555
2023-04-15T09:14:54.932Z,73.7447
2023-04-15T09:15:55.497Z,75.0990
2023-04-15T09:16:56.106Z,76.0620
2023-04-15T09:17:56.715Z,75.9502
2023-04-15T09:18:57.326Z,75.9774
2023-04-15T09:19:57.908Z,76.9505
2023-04-15T09:20:58.490Z,76.3724
2023-04-15T09:21:59.414Z,76.6238
2023-04-15T09:23:00.440Z,75.4119
2023-04-15T09:24:01.403Z,73.8253
2023-04-15T09:25:02.437Z,74.9538
2023-04-15T09:26:03.052Z,75.1199
2023-04-15T09:27:03.680Z,74.0370
2023-04-15T09:28:04.494Z,74.1574
2023-04-15T09:29:05.101Z,73.8634
2023-04-15T09:30:05.668Z,73.1049
2023-04-15T09:31:06.283Z,73.6015
2023-04-15T09:32:06.869Z,73.9758
2023-04-15T09:33:07.511Z,73.7550
2023-04-15T09:34:08.056Z,71.8882
2023-04-15T09:35:08.893Z,71.0982
2023-04-15T09:36:09.587Z,69.0693
2023-04-15T09:37:10.543Z,69.2793
2023-04-15T09:38:11.113Z,71.4717
2023-04-15T09:39:11.680Z,73.3125
2023-04-15T09:40:12.269Z,72.6085
2023-04-15T09:41:12.842Z,71.7089
2023-04-15T09:42:13.427Z,71.0334
2023-04-15T09:43:14.032Z,69.6196
2023-04-15T09:44:14.582Z,68.5202
2023-04-15T09:45:15.200Z,68.7584
2023-04-15T09:46:15.793Z,68.5655
2023-04-15T09:47:16.672Z,69.4605
2023-04-15T09:48:17.299Z,68.8772
2023-04-15T09:49:17.973Z,68.6630
2023-04-15T09:50:18.551Z,69.1051
2023-04-15T09:51:19.213Z,68.3740
2023-04-15T09:52:19.794Z,69.9684
2023-04-15T09:53:20.387Z,69.5144
2023-04-15T09:54:20.974Z,67.6717
2023-04-15T09:55:21.552Z,65.8010
2023-04-15T09:56:22.138Z,65.1912
2023-04-15T09:57:22.693Z,65.3352
2023-04-15T09:58:23.278Z,66.0567
2023-04-15T09:59:23.844Z,64.5814
2023-04-15T10:00:24.985Z,60.8692
2023-04-15T10:01:25.565Z,63.5124
2023-04-15T10:02:26.287Z,65.4844
2023-04-15T10:03:27.000Z,62.1217
2023-04-15T10:04:27.958Z,63.0934
2023-04-15T10:05:29.775Z,64.6440
2023-04-15T10:06:30.777Z,67.5709
2023-04-15T10:07:31.349Z,69.3996
2023-04-15T10:08:31.958Z,67.9179
2023-04-15T10:09:32.553Z,66.5388
2023-04-15T10:10:33.133Z,67.1137
2023-04-15T10:11:33.692Z,66.9424
2023-04-15T10:12:34.315Z,68.4955
2023-04-15T10:13:34.877Z,69.0843
2023-04-15T10:14:35.506Z,68.1646
2023-04-15T10:15:36.090Z,67.8185
2023-04-15T10:16:36.634Z,67.9901
2023-04-15T10:17:37.461Z,67.6655
2023-04-15T10:18:38.150Z,69.9019
2023-04-15T10:19:38.771Z,69.6897
2023-04-15T10:20:39.365Z,69.7077
2023-04-15T10:21:39.949Z,70.6749
2023-04-15T10:22:40.757Z,70.2978
2023-04-15T10:23:41.280Z,70.0085
2023-04-15T10:25:44.935Z,71.2796
2023-04-15T10:26:45.556Z,71.0345
2023-04-15T10:27:46.122Z,70.1804
2023-04-15T10:28:46.710Z,70.9841
2023-04-15T10:29:47.299Z,71.6156
2023-04-15T10:30:47.880Z,71.3866
2023-04-15T10:31:48.576Z,72.7436
2023-04-15T10:32:49.169Z,71.2489
2023-04-15T10:33:49.733Z,71.4156
2023-04-15T10:34:51.071Z,70.0107
2023-04-15T10:35:52.414Z,70.5320
2023-04-15T10:36:52.978Z,71.8014
2023-04-15T10:37:53.552Z,69.4510
2023-04-15T10:38:54.132Z,70.6512
2023-04-15T10:39:54.910Z,71.2989
2023-04-15T10:40:55.514Z,71.0109
2023-04-15T10:41:56.167Z,70.6740
2023-04-15T10:42:56.725Z,70.0934
2023-04-15T10:43:57.295Z,71.2548
2023-04-15T10:44:57.868Z,70.9729
2023-04-15T10:45:58.445Z,70.7644
2023-04-15T10:46:59.277Z,72.3627
2023-04-15T10:48:01.596Z,69.8517
2023-04-15T10:49:00.359Z,70.6790
2023-04-15T10:50:00.985Z,73.6209
2023-04-15T10:51:01.591Z,74.8932
2023-04-15T10:52:02.167Z,76.0059
2023-04-15T10:53:02.726Z,76.1193
2023-04-15T10:54:03.536Z,76.5980
2023-04-15T10:55:04.114Z,76.9917
2023-04-15T10:56:04.682Z,76.0056
2023-04-15T10:57:05.250Z,76.2676
2023-04-15T10:58:05.866Z,75.5969
2023-04-15T10:59:06.431Z,75.4557
2023-04-15T11:00:07.001Z,74.4713
2023-04-15T11:01:07.616Z,74.0247
2023-04-15T11:02:08.479Z,74.5293
2023-04-15T11:03:09.518Z,73.9522
2023-04-15T11:04:10.543Z,73.1673
2023-04-15T11:05:11.097Z,75.2788
2023-04-15T11:06:11.669Z,74.8426
2023-04-15T11:07:12.257Z,73.8177
2023-04-15T11:08:12.868Z,72.7453
2023-04-15T11:09:13.690Z,73.1690
2023-04-15T11:10:14.279Z,72.7533
2023-04-15T11:11:14.831Z,71.2233
2023-04-15T11:12:15.445Z,71.2113
2023-04-15T11:13:16.062Z,71.3171
2023-04-15T11:14:16.632Z,72.4661
2023-04-15T11:15:17.199Z,71.6678
2023-04-15T11:16:17.820Z,71.1124
2023-04-15T11:17:18.698Z,71.0814
2023-04-15T11:18:19.297Z,71.6916
2023-04-15T11:19:19.908Z,71.2025
2023-04-15T11:20:20.499Z,73.8367
2023-04-15T11:21:21.088Z,74.4990
2023-04-15T11:22:21.666Z,75.1557
2023-04-15T11:23:22.534Z,75.0453
2023-04-15T11:24:23.318Z,75.0898
2023-04-15T11:25:24.043Z,74.7461
2023-04-15T11:26:24.697Z,75.7864
2023-04-15T11:27:25.293Z,76.7442
2023-04-15T11:28:25.856Z,76.8797
2023-04-15T11:29:26.465Z,76.7324
2023-04-15T11:30:27.080Z,77.0678
2023-04-15T11:31:27.701Z,76.4971
2023-04-15T11:32:28.282Z,75.7535
2023-04-15T11:33:28.911Z,76.6505
2023-04-15T11:34:29.493Z,77.5570
2023-04-15T11:35:30.084Z,77.1443
2023-04-15T11:36:30.645Z,77.0313
2023-04-15T11:37:31.252Z,76.6328
2023-04-15T11:38:31.834Z,77.1963
2023-04-15T11:39:32.429Z,77.0355
2023-04-15T11:40:32.980Z,77.6399
2023-04-15T11:41:33.579Z,77.1676
2023-04-15T11:42:48.741Z,77.0776
2023-04-15T11:43:37.148Z,77.2234
2023-04-15T11:44:37.735Z,77.0426
2023-04-15T11:45:38.340Z,77.0848
2023-04-15T11:46:38.912Z,77.0056
2023-04-15T11:47:39.509Z,77.1940
2023-04-15T11:48:40.113Z,77.1755
2023-04-15T11:49:40.953Z,77.7906
2023-04-15T11:50:41.559Z,77.6623
2023-04-15T11:51:42.099Z,77.4568
2023-04-15T11:52:42.656Z,77.8811
2023-04-15T11:53:43.281Z,78.8096
2023-04-15T11:54:43.873Z,77.1534
2023-04-15T11:55:44.683Z,75.9848
2023-04-15T11:56:45.244Z,74.6513
2023-04-15T11:57:45.839Z,73.0019
2023-04-15T11:58:46.572Z,74.7493
2023-04-15T11:59:47.220Z,75.6966
2023-04-15T12:00:47.878Z,75.7187
2023-04-15T12:01:48.711Z,74.7094
2023-04-15T12:02:49.360Z,75.6382
2023-04-15T12:03:50.545Z,75.8279
2023-04-15T12:04:51.360Z,74.2874
2023-04-15T12:05:51.976Z,73.7035
2023-04-15T12:06:52.585Z,73.4590
2023-04-15T12:07:53.210Z,73.0594
2023-04-15T12:08:53.816Z,72.4379
2023-04-15T12:09:54.443Z,71.2562
2023-04-15T12:10:55.070Z,70.1708
2023-04-15T12:11:55.664Z,70.2747
2023-04-15T12:12:56.284Z,71.8562
2023-04-15T12:13:56.885Z,74.2493
2023-04-15T12:14:57.541Z,74.3071
2023-04-15T12:15:58.186Z,74.1178
2023-04-15T12:16:58.813Z,74.0482
2023-04-15T12:17:59.743Z,73.2468
2023-04-15T12:19:02.342Z,72.8123
2023-04-15T12:20:02.993Z,71.9545
2023-04-15T12:21:03.587Z,72.4212
2023-04-15T12:22:04.212Z,71.4131